createdAt,value
2023-02-06T00:02:16.223Z,52534.29
2023-02-06T00:04:47.368Z,52540.32
2023-02-06T00:07:18.710Z,52543.54
2023-02-06T00:09:49.587Z,52548.36
2023-02-06T00:12:22.460Z,52520.63
2023-02-06T00:14:54.316Z,52537.51
2023-02-06T00:17:25.438Z,52540.73
2023-02-06T00:19:56.652Z,52560.42
2023-02-06T00:22:27.880Z,52543.54
2023-02-06T00:24:58.913Z,52540.32
2023-02-06T00:27:30.168Z,52526.66
2023-02-06T00:30:02.442Z,52541.53
2023-02-06T00:32:33.933Z,52538.72
2023-02-06T00:35:05.150Z,52542.74
2023-02-06T00:37:36.649Z,52522.64
2023-02-06T00:40:10.505Z,52560.42
2023-02-06T00:42:42.242Z,52529.88
2023-02-06T00:45:13.404Z,52533.49
2023-02-06T00:47:45.349Z,52549.16
2023-02-06T00:50:16.408Z,52560.02
2023-02-06T00:52:47.611Z,52533.09
2023-02-06T00:55:19.275Z,52532.29
2023-02-06T00:57:50.669Z,52540.32
2023-02-06T01:00:21.854Z,52550.77
2023-02-06T01:02:53.131Z,52549.97
2023-02-06T01:05:24.778Z,52545.55
2023-02-06T01:07:57.710Z,52531.88
2023-02-06T01:10:30.071Z,52533.89
2023-02-06T01:13:01.060Z,52539.12
2023-02-06T01:15:34.385Z,52549.57
2023-02-06T01:18:07.623Z,52539.52
2023-02-06T01:20:38.593Z,52550.77
2023-02-06T01:23:09.761Z,52537.51
2023-02-06T01:25:41.312Z,52552.38
2023-02-06T01:28:13.399Z,52556.00
2023-02-06T01:30:44.502Z,52542.33
2023-02-06T01:33:15.642Z,52547.16
2023-02-06T01:35:48.987Z,52543.94
2023-02-06T01:38:20.084Z,52525.86
2023-02-06T01:40:51.025Z,52554.79
2023-02-06T01:43:22.112Z,52541.13
2023-02-06T01:45:54.232Z,52533.89
2023-02-06T01:48:27.400Z,52541.52
2023-02-06T01:50:58.251Z,52553.19
2023-02-06T01:53:29.427Z,52543.14
2023-02-06T01:56:00.935Z,52556.00
2023-02-06T01:58:34.083Z,52542.34
2023-02-06T02:01:05.812Z,52547.96
2023-02-06T02:03:37.669Z,52539.12
2023-02-06T02:06:09.761Z,52538.71
2023-02-06T02:08:41.534Z,52541.94
2023-02-06T02:11:13.232Z,52542.34
2023-02-06T02:13:44.983Z,52544.74
2023-02-06T02:16:17.497Z,52541.93
2023-02-06T02:18:56.338Z,52544.74
2023-02-06T02:21:36.931Z,52546.75
2023-02-06T02:24:09.527Z,52551.18
2023-02-06T02:27:00.220Z,52550.77
2023-02-06T02:29:47.290Z,52568.05
2023-02-06T02:32:44.527Z,52553.19
2023-02-06T02:35:30.491Z,52535.50
2023-02-06T02:38:07.877Z,52556.00
2023-02-06T02:40:41.747Z,52561.63
2023-02-06T02:43:19.470Z,52541.93
2023-02-06T02:45:51.752Z,52553.18
2023-02-06T02:48:24.443Z,52557.61
2023-02-06T02:50:56.101Z,52553.99
2023-02-06T02:53:27.233Z,52553.19
2023-02-06T02:56:03.332Z,52535.50
2023-02-06T02:58:35.489Z,52549.97
2023-02-06T03:01:09.601Z,52541.53
2023-02-06T03:03:41.412Z,52558.81
2023-02-06T03:06:18.192Z,52564.44
2023-02-06T03:08:50.930Z,52553.99
2023-02-06T03:11:22.241Z,52555.20
2023-02-06T03:13:55.677Z,52535.10
2023-02-06T03:16:28.028Z,52549.57
2023-02-06T03:19:00.250Z,52555.20
2023-02-06T03:21:32.123Z,52547.16
2023-02-06T03:24:03.866Z,52553.18
2023-02-06T03:26:35.193Z,52555.60
2023-02-06T03:29:07.189Z,52557.21
2023-02-06T03:31:39.311Z,52574.08
2023-02-06T03:34:13.854Z,52545.15
2023-02-06T03:36:45.286Z,52562.43
2023-02-06T03:39:16.267Z,52567.25
2023-02-06T03:41:49.201Z,52560.42
2023-02-06T03:44:21.747Z,52564.03
2023-02-06T03:46:52.896Z,52562.43
2023-02-06T03:49:23.902Z,52559.61
2023-02-06T03:51:55.915Z,52555.20
2023-02-06T03:54:27.216Z,52550.77
2023-02-06T03:56:59.703Z,52542.33
2023-02-06T03:59:30.906Z,52561.22
2023-02-06T04:02:03.846Z,52559.21
2023-02-06T04:04:36.690Z,52547.96
2023-02-06T04:07:08.974Z,52551.57
2023-02-06T04:09:40.238Z,52550.37
2023-02-06T04:12:11.481Z,52553.59
2023-02-06T04:14:43.214Z,52541.53
2023-02-06T04:17:23.782Z,52553.19
2023-02-06T04:20:03.048Z,52550.77
2023-02-06T04:22:35.205Z,52555.60
2023-02-06T04:25:06.523Z,52551.18
2023-02-06T04:27:37.461Z,52559.61
2023-02-06T04:30:10.317Z,52551.57
2023-02-06T04:32:42.253Z,52559.21
2023-02-06T04:35:13.334Z,52552.78
2023-02-06T04:37:44.432Z,52551.18
2023-02-06T04:40:15.672Z,52563.23
2023-02-06T04:42:46.929Z,52566.05
2023-02-06T04:45:18.000Z,52581.32
2023-02-06T04:47:50.554Z,52559.21
2023-02-06T04:50:22.094Z,52566.04
2023-02-06T04:52:53.142Z,52566.45
2023-02-06T04:55:24.383Z,52566.45
2023-02-06T04:57:55.570Z,52576.49
2023-02-06T05:00:26.892Z,52568.46
2023-02-06T05:02:58.539Z,52549.57
2023-02-06T05:05:29.731Z,52557.20
2023-02-06T05:08:01.144Z,52568.05
2023-02-06T05:10:32.533Z,52566.04
2023-02-06T05:13:04.251Z,52556.40
2023-02-06T05:15:35.666Z,52545.15
2023-02-06T05:18:09.201Z,52575.29
2023-02-06T05:20:40.656Z,52554.79
2023-02-06T05:23:12.092Z,52562.02
2023-02-06T05:25:43.205Z,52568.86
2023-02-06T05:28:14.665Z,52572.88
2023-02-06T05:30:46.232Z,52560.42
2023-02-06T05:33:19.388Z,52563.23
2023-02-06T05:35:50.495Z,52552.78
2023-02-06T05:38:21.627Z,52567.25
2023-02-06T05:40:53.506Z,52570.06
2023-02-06T05:43:24.667Z,52560.82
2023-02-06T05:45:55.954Z,52580.51
2023-02-06T05:48:29.188Z,52558.01
2023-02-06T05:51:00.272Z,52549.97
2023-02-06T05:53:31.534Z,52561.63
2023-02-06T05:56:03.063Z,52555.99
2023-02-06T05:58:34.750Z,52570.06
2023-02-06T06:01:06.241Z,52558.41
2023-02-06T06:03:38.863Z,52554.39
2023-02-06T06:06:10.768Z,52580.51
2023-02-06T06:08:42.918Z,52564.84
2023-02-06T06:11:13.891Z,52572.48
2023-02-06T06:13:45.114Z,52569.26
2023-02-06T06:16:19.150Z,52564.04
2023-02-06T06:18:50.194Z,52559.62
2023-02-06T06:21:21.128Z,52570.47
2023-02-06T06:23:52.143Z,52562.83
2023-02-06T06:26:23.155Z,52569.26
2023-02-06T06:28:54.560Z,52570.06
2023-02-06T06:31:25.663Z,52565.24
2023-02-06T06:33:56.780Z,52571.27
2023-02-06T06:36:27.676Z,52553.18
2023-02-06T06:38:58.993Z,52570.46
2023-02-06T06:41:30.331Z,52566.04
2023-02-06T06:44:01.975Z,52568.86
2023-02-06T06:46:33.177Z,52562.43
2023-02-06T06:49:04.692Z,52563.64
2023-02-06T06:51:35.799Z,52564.84
2023-02-06T06:54:07.620Z,52566.84
2023-02-06T06:56:40.172Z,52563.63
2023-02-06T06:59:11.796Z,52576.90
2023-02-06T07:01:44.692Z,52548.36
2023-02-06T07:04:15.799Z,52572.48
2023-02-06T07:06:47.011Z,52567.65
2023-02-06T07:09:18.109Z,52577.70
2023-02-06T07:11:49.249Z,52558.01
2023-02-06T07:14:21.107Z,52564.04
2023-02-06T07:16:52.449Z,52574.89
2023-02-06T07:19:23.941Z,52565.24
2023-02-06T07:21:55.416Z,52561.63
2023-02-06T07:24:27.845Z,52566.85
2023-02-06T07:26:59.402Z,52571.27
2023-02-06T07:29:31.491Z,52588.95
2023-02-06T07:32:02.990Z,52546.36
2023-02-06T07:34:35.689Z,52546.76
2023-02-06T07:37:07.095Z,52573.68
2023-02-06T07:39:39.482Z,52564.84
2023-02-06T07:42:12.167Z,52556.40
2023-02-06T07:44:56.578Z,52557.61
2023-02-06T07:47:27.832Z,52568.86
2023-02-06T07:50:01.985Z,52551.98
2023-02-06T07:52:33.596Z,52564.04
2023-02-06T07:55:04.837Z,52561.63
2023-02-06T07:57:36.077Z,52578.10
2023-02-06T08:00:09.389Z,52564.44
2023-02-06T08:02:43.685Z,52562.43
2023-02-06T08:05:15.167Z,52555.20
2023-02-06T08:07:47.068Z,52559.21
2023-02-06T08:10:18.769Z,52566.04
2023-02-06T08:13:10.278Z,52563.64
2023-02-06T08:15:42.598Z,52572.48
2023-02-06T08:18:13.636Z,52557.21
2023-02-06T08:20:45.056Z,52558.41
2023-02-06T08:23:16.884Z,52564.04
2023-02-06T08:25:48.240Z,52571.68
2023-02-06T08:28:19.800Z,52581.72
2023-02-06T08:30:52.083Z,52576.09
2023-02-06T08:33:23.452Z,52572.48
2023-02-06T08:35:55.370Z,52556.00
2023-02-06T08:38:30.213Z,52576.49
2023-02-06T08:41:03.120Z,52548.76
2023-02-06T08:43:35.205Z,52568.46
2023-02-06T08:46:08.372Z,52565.64
2023-02-06T08:48:39.744Z,52567.25
2023-02-06T08:51:12.303Z,52563.64
2023-02-06T08:53:43.463Z,52566.04
2023-02-06T08:56:14.652Z,52554.39
2023-02-06T08:58:45.865Z,52572.48
2023-02-06T09:01:16.924Z,52567.65
2023-02-06T09:03:48.846Z,52547.16
2023-02-06T09:06:20.068Z,52564.04
2023-02-06T09:08:52.390Z,52543.54
2023-02-06T09:11:28.902Z,52552.78
2023-02-06T09:14:04.020Z,52549.16
2023-02-06T09:16:38.772Z,52549.97
2023-02-06T09:19:10.162Z,52556.00
2023-02-06T09:21:42.078Z,52550.77
2023-02-06T09:24:14.845Z,52564.84
2023-02-06T09:27:01.104Z,52567.25
2023-02-06T09:29:36.740Z,52551.98
2023-02-06T09:32:08.285Z,52541.13
2023-02-06T09:34:40.690Z,52553.19
2023-02-06T09:37:12.072Z,52533.89
2023-02-06T09:39:43.590Z,52539.93
2023-02-06T09:42:17.651Z,52548.76
2023-02-06T09:44:49.810Z,52527.46
2023-02-06T09:47:22.254Z,52519.02
2023-02-06T09:49:54.142Z,52534.70
2023-02-06T09:52:40.030Z,52542.33
2023-02-06T09:55:12.004Z,52529.48
2023-02-06T09:57:45.535Z,52531.08
2023-02-06T10:00:19.962Z,52558.81
2023-02-06T10:03:00.578Z,52539.12
2023-02-06T10:05:36.984Z,52540.32
2023-02-06T10:08:12.270Z,52523.04
2023-02-06T10:10:43.652Z,52519.02
2023-02-06T10:13:15.928Z,52533.89
2023-02-06T10:15:48.417Z,52510.99
2023-02-06T10:18:20.797Z,52526.66
2023-02-06T10:20:53.541Z,52516.21
2023-02-06T10:23:26.396Z,52511.79
2023-02-06T10:26:01.042Z,52518.21
2023-02-06T10:28:32.748Z,52517.01
2023-02-06T10:31:10.351Z,52510.18
2023-02-06T10:33:42.922Z,52527.86
2023-02-06T10:36:17.170Z,52517.41
2023-02-06T10:38:53.039Z,52511.39
2023-02-06T10:41:26.754Z,52517.02
2023-02-06T10:43:59.065Z,52517.41
2023-02-06T10:46:33.249Z,52515.80
2023-02-06T10:49:05.042Z,52522.24
2023-02-06T10:51:37.168Z,52516.61
2023-02-06T10:54:13.460Z,52500.14
2023-02-06T10:56:47.460Z,52491.70
2023-02-06T10:59:22.632Z,52506.56
2023-02-06T11:02:00.618Z,52500.94
2023-02-06T11:04:34.500Z,52484.46
2023-02-06T11:07:05.993Z,52491.70
2023-02-06T11:09:37.752Z,52502.14
2023-02-06T11:12:11.247Z,52492.50
2023-02-06T11:14:42.877Z,52482.05
2023-02-06T11:17:15.628Z,52488.48
2023-02-06T11:19:46.787Z,52467.58
2023-02-06T11:22:18.346Z,52493.30
2023-02-06T11:25:01.188Z,52504.55
2023-02-06T11:27:32.392Z,52494.51
2023-02-06T11:30:06.081Z,52489.68
2023-02-06T11:32:40.936Z,52495.31
2023-02-06T11:35:19.429Z,52474.01
2023-02-06T11:37:53.285Z,52470.39
2023-02-06T11:40:25.918Z,52473.21
2023-02-06T11:43:09.316Z,52472.41
2023-02-06T11:45:41.708Z,52471.20
2023-02-06T11:48:30.509Z,52474.41
2023-02-06T11:51:01.821Z,52485.67
2023-02-06T11:53:33.264Z,52472.00
2023-02-06T11:56:05.984Z,52465.98
2023-02-06T11:58:37.195Z,52468.39
2023-02-06T12:01:09.816Z,52476.43
2023-02-06T12:03:45.221Z,52461.15
2023-02-06T12:06:16.684Z,52441.46
2023-02-06T12:08:51.538Z,52484.46
2023-02-06T12:11:26.448Z,52457.54
2023-02-06T12:13:59.166Z,52454.72
2023-02-06T12:16:30.796Z,52459.54
2023-02-06T12:19:02.430Z,52460.75
2023-02-06T12:21:36.840Z,52453.92
2023-02-06T12:24:13.222Z,52439.45
2023-02-06T12:26:44.564Z,52447.49
2023-02-06T12:29:17.071Z,52457.54
2023-02-06T12:31:53.170Z,52430.61
2023-02-06T12:34:25.414Z,52432.62
2023-02-06T12:37:01.016Z,52444.27
2023-02-06T12:39:33.804Z,52448.70
2023-02-06T12:42:17.351Z,52458.74
2023-02-06T12:44:50.660Z,52459.54
2023-02-06T12:47:24.106Z,52502.14
2023-02-06T12:49:56.825Z,52473.61
2023-02-06T12:52:31.179Z,52478.43
2023-02-06T12:55:05.389Z,52500.54
2023-02-06T12:57:37.574Z,52477.63
2023-02-06T13:00:25.086Z,52485.67
2023-02-06T13:03:05.908Z,52498.52
2023-02-06T13:05:37.778Z,52512.20
2023-02-06T13:08:11.020Z,52495.31
2023-02-06T13:10:42.542Z,52499.73
2023-02-06T13:13:26.753Z,52502.95
2023-02-06T13:15:58.316Z,52515.80
2023-02-06T13:18:52.823Z,52506.57
2023-02-06T13:21:25.510Z,52509.38
2023-02-06T13:24:10.382Z,52516.61
2023-02-06T13:27:03.202Z,52496.11
2023-02-06T13:29:34.894Z,52505.36
2023-02-06T13:32:25.113Z,52485.26
2023-02-06T13:34:57.681Z,52522.64
2023-02-06T13:37:30.957Z,52505.76
2023-02-06T13:40:18.006Z,52497.32
2023-02-06T13:42:50.503Z,52505.76
2023-02-06T13:45:23.149Z,52485.67
2023-02-06T13:48:14.121Z,52488.48
2023-02-06T13:50:48.750Z,52477.63
2023-02-06T13:53:35.968Z,52484.05
2023-02-06T13:56:21.034Z,52485.26
2023-02-06T13:58:52.355Z,52477.63
2023-02-06T14:01:24.978Z,52472.00
2023-02-06T14:03:56.331Z,52473.61
2023-02-06T14:06:50.015Z,52473.21
2023-02-06T14:09:30.848Z,52497.72
2023-02-06T14:12:22.364Z,52465.98
2023-02-06T14:14:59.239Z,52482.85
2023-02-06T14:17:35.262Z,52490.89
2023-02-06T14:20:12.480Z,52480.45
2023-02-06T14:22:45.977Z,52494.51
2023-02-06T14:25:26.094Z,52478.43
2023-02-06T14:28:02.218Z,52502.14
2023-02-06T14:30:36.420Z,52497.73
2023-02-06T14:33:12.243Z,52488.88
2023-02-06T14:35:47.681Z,52493.30
2023-02-06T14:38:27.249Z,52501.34
2023-02-06T14:40:58.392Z,52518.63
2023-02-06T14:43:30.737Z,52509.77
2023-02-06T14:46:07.936Z,52527.46
2023-02-06T14:48:40.984Z,52510.59
2023-02-06T14:51:17.927Z,52521.84
2023-02-06T14:53:53.915Z,52528.27
2023-02-06T14:56:28.802Z,52526.66
2023-02-06T14:58:59.941Z,52507.37
2023-02-06T15:01:32.667Z,52522.64
2023-02-06T15:04:14.413Z,52529.48
2023-02-06T15:06:46.761Z,52531.08
2023-02-06T15:09:28.647Z,52527.46
2023-02-06T15:12:18.760Z,52539.12
2023-02-06T15:14:57.779Z,52535.50
2023-02-06T15:17:30.497Z,52520.23
2023-02-06T15:23:17.006Z,52538.32
2023-02-06T15:25:55.408Z,52519.43
2023-02-06T15:28:27.586Z,52528.27
2023-02-06T15:30:59.205Z,52534.29
2023-02-06T15:33:34.706Z,52546.35
2023-02-06T15:36:05.912Z,52540.32
2023-02-06T15:38:38.523Z,52521.84
2023-02-06T15:41:09.680Z,52535.90
2023-02-06T15:43:41.847Z,52543.95
2023-02-06T15:46:13.336Z,52523.84
2023-02-06T15:48:50.554Z,52539.92
2023-02-06T15:51:23.027Z,52534.30
2023-02-06T15:53:55.515Z,52541.52
2023-02-06T15:56:27.143Z,52548.76
2023-02-06T15:58:59.682Z,52551.98
2023-02-06T16:01:31.970Z,52558.80
2023-02-06T16:04:05.269Z,52546.36
2023-02-06T16:06:37.958Z,52538.72
2023-02-06T16:09:09.072Z,52543.54
2023-02-06T16:11:51.378Z,52551.57
2023-02-06T16:14:24.284Z,52537.91
2023-02-06T16:16:59.494Z,52551.18
2023-02-06T16:19:42.106Z,52543.14
2023-02-06T16:22:23.301Z,52547.55
2023-02-06T16:24:55.240Z,52553.18
2023-02-06T16:27:26.853Z,52558.81
2023-02-06T16:29:59.081Z,52549.57
2023-02-06T16:32:31.425Z,52558.01
2023-02-06T16:35:02.932Z,52547.55
2023-02-06T16:37:34.845Z,52551.57
2023-02-06T16:40:06.694Z,52562.02
2023-02-06T16:42:38.354Z,52561.22
2023-02-06T16:45:10.543Z,52539.52
2023-02-06T16:47:41.756Z,52552.79
2023-02-06T16:50:13.038Z,52564.84
2023-02-06T16:52:50.220Z,52562.02
2023-02-06T16:55:23.463Z,52554.39
2023-02-06T16:57:55.056Z,52554.39
2023-02-06T17:00:26.896Z,52558.41
2023-02-06T17:02:57.880Z,52580.11
2023-02-06T17:05:29.403Z,52564.84
2023-02-06T17:08:01.946Z,52543.14
2023-02-06T17:10:33.875Z,52572.88
2023-02-06T17:13:05.092Z,52566.45
2023-02-06T17:15:36.575Z,52566.45
2023-02-06T17:18:07.749Z,52574.48
2023-02-06T17:20:40.203Z,52574.09
2023-02-06T17:23:12.435Z,52576.09
2023-02-06T17:25:44.541Z,52571.68
2023-02-06T17:28:16.592Z,52549.57
2023-02-06T17:30:49.084Z,52582.12
2023-02-06T17:33:21.318Z,52588.15
2023-02-06T17:35:52.620Z,52558.41
2023-02-06T17:38:23.740Z,52576.49
2023-02-06T17:40:55.148Z,52569.26
2023-02-06T17:43:26.251Z,52571.67
2023-02-06T17:45:58.518Z,52578.50
2023-02-06T17:48:29.845Z,52565.24
2023-02-06T17:51:01.971Z,52568.46
2023-02-06T17:53:33.279Z,52564.84
2023-02-06T17:56:08.212Z,52563.63
2023-02-06T17:58:39.168Z,52581.31
2023-02-06T18:01:13.118Z,52574.89
2023-02-06T18:03:45.426Z,52565.24
2023-02-06T18:06:17.914Z,52560.82
2023-02-06T18:08:49.178Z,52567.65
2023-02-06T18:11:21.680Z,52562.43
2023-02-06T18:13:52.921Z,52596.99
2023-02-06T18:16:24.859Z,52593.38
2023-02-06T18:18:56.560Z,52575.29
2023-02-06T18:21:29.717Z,52578.91
2023-02-06T18:24:00.840Z,52561.23
2023-02-06T18:26:33.116Z,52590.56
2023-02-06T18:29:06.272Z,52588.15
2023-02-06T18:31:37.623Z,52584.13
2023-02-06T18:34:09.247Z,52572.07
2023-02-06T18:36:42.910Z,52592.57
2023-02-06T18:39:14.069Z,52586.95
2023-02-06T18:42:03.286Z,52574.49
2023-02-06T18:44:41.873Z,52584.94
2023-02-06T18:47:13.493Z,52581.72
2023-02-06T18:49:44.596Z,52592.57
2023-02-06T18:52:16.774Z,52594.18
2023-02-06T18:54:49.254Z,52585.74
2023-02-06T18:57:20.516Z,52580.92
2023-02-06T18:59:51.729Z,52583.73
2023-02-06T19:02:23.095Z,52601.81
2023-02-06T19:04:54.731Z,52598.20
2023-02-06T19:07:25.736Z,52588.55
2023-02-06T19:09:59.376Z,52590.56
2023-02-06T19:12:30.571Z,52577.30
2023-02-06T19:15:01.945Z,52598.60
2023-02-06T19:17:33.624Z,52580.11
2023-02-06T19:20:04.878Z,52571.68
2023-02-06T19:22:36.796Z,52595.39
2023-02-06T19:25:10.906Z,52589.76
2023-02-06T19:27:43.222Z,52598.60
2023-02-06T19:30:14.869Z,52591.36
2023-02-06T19:32:46.490Z,52606.64
2023-02-06T19:35:19.249Z,52592.97
2023-02-06T19:37:52.206Z,52611.46
2023-02-06T19:40:23.461Z,52598.60
2023-02-06T19:42:54.609Z,52603.82
2023-02-06T19:45:25.809Z,52599.00
2023-02-06T19:47:57.966Z,52590.96
2023-02-06T19:50:29.091Z,52567.65
2023-02-06T19:53:00.367Z,52590.56
2023-02-06T19:55:31.358Z,52601.41
2023-02-06T19:58:02.463Z,52590.96
2023-02-06T20:00:33.533Z,52569.26
2023-02-06T20:03:05.083Z,52589.76
2023-02-06T20:05:36.740Z,52586.95
2023-02-06T20:08:10.696Z,52581.72
2023-02-06T20:10:44.208Z,52590.16
2023-02-06T20:13:17.907Z,52599.80
2023-02-06T20:15:49.229Z,52578.10
2023-02-06T20:18:20.244Z,52599.80
2023-02-06T20:20:51.726Z,52597.39
2023-02-06T20:23:22.781Z,52592.17
2023-02-06T20:25:55.012Z,52586.95
2023-02-06T20:28:26.502Z,52600.61
2023-02-06T20:30:57.886Z,52592.98
2023-02-06T20:33:30.385Z,52583.32
2023-02-06T20:36:01.653Z,52593.38
2023-02-06T20:38:32.877Z,52607.44
2023-02-06T20:41:03.980Z,52594.18
2023-02-06T20:43:36.235Z,52603.02
2023-02-06T20:46:08.847Z,52596.59
2023-02-06T20:48:39.871Z,52592.17
2023-02-06T20:51:11.634Z,52612.26
2023-02-06T20:53:43.409Z,52607.84
2023-02-06T20:56:15.767Z,52600.61
2023-02-06T20:58:47.112Z,52622.71
2023-02-06T21:01:18.764Z,52584.53
2023-02-06T21:03:49.888Z,52595.79
2023-02-06T21:06:21.458Z,52603.43
2023-02-06T21:08:57.564Z,52599.00
2023-02-06T21:11:30.367Z,52591.37
2023-02-06T21:14:02.076Z,52593.38
2023-02-06T21:16:34.635Z,52602.62
2023-02-06T21:19:05.966Z,52606.23
2023-02-06T21:21:38.544Z,52605.43
2023-02-06T21:24:10.379Z,52599.00
2023-02-06T21:26:42.353Z,52596.19
2023-02-06T21:29:14.056Z,52606.64
2023-02-06T21:31:46.373Z,52584.13
2023-02-06T21:34:18.974Z,52605.83
2023-02-06T21:36:50.244Z,52597.39
2023-02-06T21:39:21.878Z,52585.34
2023-02-06T21:41:54.106Z,52599.00
2023-02-06T21:44:26.605Z,52585.74
2023-02-06T21:46:58.172Z,52596.99
2023-02-06T21:49:32.389Z,52588.55
2023-02-06T21:52:03.915Z,52608.24
2023-02-06T21:54:35.918Z,52602.62
2023-02-06T21:57:06.984Z,52594.58
2023-02-06T21:59:38.843Z,52590.16
2023-02-06T22:02:10.700Z,52575.70
2023-02-06T22:04:41.994Z,52592.17
2023-02-06T22:07:13.724Z,52570.87
2023-02-06T22:09:45.116Z,52594.98
2023-02-06T22:12:16.281Z,52586.54
2023-02-06T22:14:47.402Z,52591.36
2023-02-06T22:17:21.374Z,52573.27
2023-02-06T22:19:53.054Z,52585.34
2023-02-06T22:22:24.905Z,52582.52
2023-02-06T22:24:56.388Z,52589.36
2023-02-06T22:27:27.354Z,52578.91
2023-02-06T22:29:58.652Z,52591.36
2023-02-06T22:32:29.672Z,52576.09
2023-02-06T22:35:01.478Z,52588.15
2023-02-06T22:37:33.310Z,52572.88
2023-02-06T22:40:05.189Z,52580.91
2023-02-06T22:42:38.134Z,52586.95
2023-02-06T22:45:10.385Z,52582.93
2023-02-06T22:47:42.100Z,52574.89
2023-02-06T22:50:13.129Z,52582.12
2023-02-06T22:53:01.734Z,52592.97
2023-02-06T22:55:47.145Z,52591.36
2023-02-06T22:58:18.503Z,52590.96
2023-02-06T23:00:50.083Z,52582.52
2023-02-06T23:03:21.088Z,52592.98
2023-02-06T23:05:53.696Z,52576.49
2023-02-06T23:08:24.973Z,52570.46
2023-02-06T23:10:56.474Z,52595.79
2023-02-06T23:13:27.606Z,52576.09
2023-02-06T23:16:01.052Z,52574.49
2023-02-06T23:18:32.535Z,52568.86
2023-02-06T23:21:05.560Z,52568.86
2023-02-06T23:23:36.908Z,52568.46
2023-02-06T23:26:10.317Z,52578.91
2023-02-06T23:28:41.740Z,52576.50
2023-02-06T23:31:12.968Z,52573.68
2023-02-06T23:33:44.396Z,52580.51
2023-02-06T23:36:15.836Z,52588.14
2023-02-06T23:38:48.338Z,52581.32
2023-02-06T23:41:20.097Z,52590.96
2023-02-06T23:43:52.862Z,52579.71
2023-02-06T23:46:24.004Z,52570.47
2023-02-06T23:48:55.587Z,52590.96
2023-02-06T23:51:26.867Z,52577.30
2023-02-06T23:53:58.581Z,52562.83
2023-02-06T23:56:30.205Z,52586.14
2023-02-06T23:59:02.368Z,52581.32
